Latest Weather Observations for Frankston

IDV60901

Issued at 3:31 pm EST Wednesday 28 June 2017 (issued every 10 minutes, with the page automatically refreshed every 10 minutes)

About weather observations | Map of Melbourne area stations | Latest observations for Melbourne area | Other Formats
Station Details ID: 086371 Name: FRANKSTON AWS Lat: -38.15 Lon: 145.12 Height: 6.0 m
Data from the previous 72 hours. | See also: Recent months at Frankston
Date/Time
EST
Temp
°C
App
Temp
°C
Dew
Point
°C
Rel
Hum
%
Delta-T
°C
Wind Press
QNH
hPa
Press
MSL
hPa
Rain since
9am
mm
Dir  Spd
km/h
Gust
km/h
Spd
kts
Gust
kts
28/03:30pm 12.7 11.9 10.9 89 0.9 N 6 7 3 4 - - -
28/03:00pm 12.8 11.9 10.5 86 1.2 N 6 7 3 4 - - -
28/02:30pm 12.6 11.5 10.5 87 1.1 N 7 9 4 5 - - -
28/02:00pm 12.5 11.3 10.2 86 1.2 N 7 11 4 6 - - -
28/01:30pm 12.3 10.2 9.9 85 1.2 N 11 15 6 8 - - -
28/01:00pm 12.0 9.0 9.4 84 1.3 N 15 20 8 11 - - -
28/12:30pm 11.8 8.8 9.2 84 1.3 N 15 17 8 9 - - -
28/12:00pm 11.8 8.4 9.0 83 1.4 N 17 20 9 11 - - -
28/11:30am 11.4 7.9 8.8 84 1.3 N 17 19 9 10 - - -
28/11:00am 11.3 8.5 8.5 83 1.4 NNE 13 17 7 9 - - -
28/10:30am 10.9 7.6 8.0 82 1.4 NNE 15 17 8 9 - - -
28/10:00am 10.7 7.0 7.9 83 1.4 NNE 17 20 9 11 - - -
28/09:30am 10.4 8.5 7.6 83 1.3 NE 7 11 4 6 - - -
28/09:00am 10.0 8.0 7.3 83 1.3 NNE 7 11 4 6 - - -
28/08:30am 9.6 7.7 6.9 83 1.3 NE 6 7 3 4 - - -
28/08:00am 9.5 7.6 6.6 82 1.4 NE 6 11 3 6 - - -
28/07:30am 9.6 7.7 6.7 82 1.4 NE 6 7 3 4 - - -
28/07:00am 9.6 8.1 6.7 82 1.4 ENE 4 7 2 4 - - -
28/06:30am 9.6 7.7 6.7 82 1.4 NE 6 9 3 5 - - -
28/06:00am 9.6 7.2 6.9 83 1.3 NE 9 17 5 9 - - -
28/05:30am 10.0 6.5 7.4 84 1.2 N 15 17 8 9 - - -
28/05:00am 9.3 6.8 6.4 82 1.3 NE 9 15 5 8 - - -
28/04:30am 10.1 5.9 7.3 83 1.3 N 19 24 10 13 - - -
28/04:00am 10.2 5.8 7.3 82 1.4 N 20 24 11 13 - - -
28/03:30am 10.2 5.8 7.3 82 1.4 N 20 28 11 15 - - -
28/03:00am 10.2 6.3 7.3 82 1.4 N 17 22 9 12 - - -
28/02:30am 9.3 7.4 6.6 83 1.3 NE 6 9 3 5 - - -
28/02:00am 9.4 7.3 6.5 82 1.3 NE 7 13 4 7 - - -
28/01:30am 9.4 7.5 6.5 82 1.3 NE 6 9 3 5 - - -
28/01:00am 9.4 7.8 6.5 82 1.3 NE 4 6 2 3 - - -
28/12:30am 9.4 7.8 6.5 82 1.3 NE 4 6 2 3 - - -
28/12:00am 9.1 7.5 6.5 84 1.2 NE 4 7 2 4 - - -
 
Date/Time
EST
Temp
°C
App
Temp
°C
Dew
Point
°C
Rel
Hum
%
Delta-T
°C
Wind Press
QNH
hPa
Press
MSL
hPa
Rain since
9am
mm
Dir  Spd
km/h
Gust
km/h
Spd
kts
Gust
kts
27/11:30pm 9.4 7.3 6.5 82 1.3 ENE 7 11 4 6 - - -
27/11:00pm 9.9 8.0 6.6 80 1.5 NE 6 11 3 6 - - -
27/10:30pm 10.2 8.2 6.9 80 1.6 NNE 7 11 4 6 - - -
27/10:00pm 10.3 8.2 6.8 79 1.6 NNE 7 9 4 5 - - -
27/09:30pm 10.3 8.5 7.0 80 1.6 NE 6 9 3 5 - - -
27/09:00pm 10.2 8.4 7.3 82 1.4 ENE 6 9 3 5 - - -
27/08:30pm 10.6 8.8 8.0 84 1.3 NE 7 15 4 8 - - -
27/08:00pm 10.2 8.5 7.6 84 1.2 ESE 6 9 3 5 - - -
27/07:30pm 10.4 9.1 7.8 84 1.3 E 4 6 2 3 - - -
27/07:00pm 10.6 9.0 8.2 85 1.2 NE 6 9 3 5 - - -
27/06:30pm 10.5 9.3 8.1 85 1.2 ENE 4 7 2 4 - - -
27/06:00pm 10.7 8.9 7.8 82 1.4 NE 7 11 4 6 - - -
27/05:30pm 10.9 9.1 8.1 83 1.4 NNE 7 15 4 8 - - -
27/05:00pm 11.1 8.6 8.1 82 1.5 NNE 11 15 6 8 - - -
27/04:30pm 11.2 7.2 8.1 81 1.5 NNE 19 22 10 12 - - -
27/04:00pm 11.3 7.6 8.0 80 1.6 N 17 22 9 12 - - -
27/03:30pm 11.4 7.8 8.3 81 1.5 N 17 20 9 11 - - -
27/03:00pm 11.6 8.3 8.1 79 1.7 N 15 17 8 9 - - -
27/02:30pm 11.5 9.0 8.0 79 1.7 N 11 15 6 8 - - -
27/02:00pm 11.1 8.6 8.3 83 1.4 N 11 15 6 8 - - -
27/01:30pm 10.9 8.3 7.8 81 1.5 N 11 15 6 8 - - -
27/01:00pm 10.9 9.4 8.3 84 1.3 N 6 7 3 4 - - -
27/12:30pm 10.6 9.5 8.5 87 1.0 NNE 4 6 2 3 - - -
27/12:00pm 10.3 9.2 8.6 89 0.8 NNE 4 6 2 3 - - -
27/11:30am 10.1 8.6 8.5 90 0.8 N 6 9 3 5 - - -
27/11:00am 10.1 9.2 9.2 94 0.4 ENE 4 7 2 4 - - -
27/10:30am 9.7 8.8 9.4 98 0.1 ENE 4 6 2 3 - - -
27/10:00am 9.3 8.0 9.2 99 0.0 ESE 6 9 3 5 - - -
27/09:30am 8.7 8.0 8.6 99 0.0 ENE 2 6 1 3 - - -
27/09:00am 8.3 7.5 8.2 99 0.0 SE 2 6 1 3 - - -
27/08:30am 8.1 6.9 8.0 99 0.0 E 4 7 2 4 - - -
27/08:00am 8.1 6.5 8.0 99 0.0 ENE 6 11 3 6 - - -
27/07:30am 8.0 7.1 7.9 99 0.0 NE 2 4 1 2 - - -
27/07:00am 8.2 6.4 8.1 99 0.0 E 7 9 4 5 - - -
27/06:30am 8.0 6.8 7.9 99 0.0 E 4 6 2 3 - - -
27/06:00am 8.1 6.9 8.0 99 0.0 ESE 4 7 2 4 - - -
27/05:30am 8.4 6.9 8.3 99 0.0 E 6 7 3 4 - - -
27/05:00am 8.5 7.0 8.5 100 0.0 E 6 6 3 3 - - -
27/04:30am 8.2 7.0 8.1 99 0.0 ESE 4 6 2 3 - - -
27/04:00am 8.0 7.1 7.9 99 0.0 ESE 2 4 1 2 - - -
27/03:30am 7.8 6.5 7.7 99 0.0 ESE 4 6 2 3 - - -
27/03:00am 7.7 6.0 7.6 99 0.0 E 6 6 3 3 - - -
27/02:30am 7.7 6.0 7.6 99 0.0 ESE 6 7 3 4 - - -
27/02:00am 8.2 7.0 8.1 99 0.0 E 4 6 2 3 - - -
27/01:30am 8.0 7.1 7.9 99 0.0 E 2 4 1 2 - - -
27/01:00am 7.9 7.4 7.8 99 0.0 CALM 0 0 0 0 - - -
27/12:30am 8.6 8.3 8.5 99 0.0 CALM 0 4 0 2 - - -
27/12:00am 8.7 7.6 8.6 99 0.0 ESE 4 6 2 3 - - -
 
Date/Time
EST
Temp
°C
App
Temp
°C
Dew
Point
°C
Rel
Hum
%
Delta-T
°C
Wind Press
QNH
hPa
Press
MSL
hPa
Rain since
9am
mm
Dir  Spd
km/h
Gust
km/h
Spd
kts
Gust
kts
26/11:30pm 8.9 7.9 8.8 99 0.0 ESE 4 6 2 3 - - -
26/11:00pm 8.8 7.8 8.7 99 0.0 ESE 4 6 2 3 - - -
26/10:30pm 8.9 8.3 8.8 99 0.0 SE 2 4 1 2 - - -
26/10:00pm 9.6 9.1 9.5 99 0.0 SE 2 2 1 1 - - -
26/09:30pm 9.9 9.5 9.8 99 0.1 E 2 4 1 2 - - -
26/09:00pm 10.0 9.3 9.9 99 0.1 ESE 4 6 2 3 - - -
26/08:30pm 10.0 9.3 9.9 99 0.1 SE 4 6 2 3 - - -
26/08:00pm 9.9 9.5 9.8 99 0.1 ESE 2 6 1 3 - - -
26/07:30pm 10.1 10.2 10.0 99 0.1 CALM 0 0 0 0 - - -
26/07:00pm 10.3 10.3 9.8 97 0.3 CALM 0 0 0 0 - - -
26/06:30pm 10.9 11.0 10.1 95 0.4 CALM 0 0 0 0 - - -
26/06:00pm 10.9 11.0 10.1 95 0.4 CALM 0 0 0 0 - - -
26/05:30pm 10.9 11.0 10.1 95 0.4 CALM 0 0 0 0 - - -
26/05:00pm 10.7 10.7 9.8 94 0.5 CALM 0 0 0 0 - - -
26/04:30pm 10.6 10.5 9.4 92 0.6 CALM 0 0 0 0 - - -
26/04:00pm 11.3 11.4 10.0 92 0.7 CALM 0 0 0 0 - - -
26/03:30pm 11.7 12.1 11.4 98 0.2 CALM 0 0 0 0 - - -
26/03:00pm 10.3 9.2 10.1 99 0.1 NW 6 7 3 4 - - -
26/02:30pm 10.1 8.4 10.0 99 0.1 W 9 13 5 7 - - -
26/02:00pm 10.7 9.8 10.5 99 0.1 WNW 6 6 3 3 - - -
26/01:30pm 10.2 9.1 10.1 99 0.1 W 6 9 3 5 - - -
26/01:00pm 10.2 8.9 10.1 99 0.1 W 7 9 4 5 - - -
26/12:30pm 9.9 8.6 9.8 99 0.1 WNW 7 9 4 5 - - -
26/12:00pm 10.1 8.4 10.0 99 0.1 W 9 11 5 6 - - -
26/11:30am 9.5 6.9 9.4 99 0.0 W 13 15 7 8 - - -
26/11:00am 9.6 6.7 9.5 99 0.0 WSW 15 20 8 11 - - -
26/10:30am 9.9 7.8 9.8 99 0.1 W 11 15 6 8 - - -
26/10:00am 9.6 6.7 9.5 99 0.0 W 15 19 8 10 - - -
26/09:30am 9.8 6.5 9.7 99 0.0 W 17 20 9 11 - - -
26/09:00am 10.2 7.0 10.1 99 0.1 W 17 22 9 12 - - -
26/08:30am 10.0 6.2 9.7 98 0.2 W 20 22 11 12 - - -
26/08:00am 10.7 7.1 9.9 95 0.4 W 19 22 10 12 - - -
26/07:30am 10.4 8.0 10.2 99 0.1 W 13 17 7 9 - - -
26/07:00am 10.1 6.3 9.8 98 0.2 W 20 22 11 12 - - -
26/06:30am 10.4 6.2 9.9 97 0.3 W 22 26 12 14 - - -
26/06:00am 10.6 6.6 10.3 98 0.2 WNW 22 24 12 13 - - -
26/05:30am 10.7 7.0 10.1 96 0.3 WNW 20 24 11 13 - - -
26/05:00am 10.7 7.0 10.1 96 0.3 WNW 20 24 11 13 - - -
26/04:30am 10.6 6.9 10.3 98 0.2 W 20 24 11 13 - - -
26/04:00am 10.7 6.2 10.2 97 0.3 W 24 28 13 15 - - -
26/03:30am 10.8 6.4 10.5 98 0.2 WNW 24 30 13 16 - - -
26/03:00am 11.0 6.6 10.4 96 0.3 W 24 28 13 15 - - -
26/02:30am 11.0 6.6 10.4 96 0.3 WNW 24 30 13 16 - - -
26/02:00am 11.3 6.9 10.5 95 0.4 WNW 24 28 13 15 - - -
26/01:30am 11.3 6.9 10.5 95 0.4 WNW 24 32 13 17 - - -
26/01:00am 11.4 7.1 10.6 95 0.4 WNW 24 30 13 16 - - -
26/12:30am 11.3 7.0 10.7 96 0.3 WNW 24 32 13 17 - - -
26/12:00am 11.3 7.0 10.7 96 0.3 WNW 24 28 13 15 - - -
 
Date/Time
EST
Temp
°C
App
Temp
°C
Dew
Point
°C
Rel
Hum
%
Delta-T
°C
Wind Press
QNH
hPa
Press
MSL
hPa
Rain since
9am
mm
Dir  Spd
km/h
Gust
km/h
Spd
kts
Gust
kts
25/11:30pm 11.4 6.7 10.8 96 0.3 WNW 26 32 14 17 - - -
25/11:00pm 11.3 6.6 10.8 97 0.3 WNW 26 32 14 17 - - -
25/10:30pm 11.4 6.4 10.8 96 0.3 WNW 28 32 15 17 - - -
25/10:00pm 11.4 6.4 11.1 98 0.2 WNW 28 33 15 18 - - -
25/09:30pm 11.4 6.4 11.1 98 0.2 WNW 28 33 15 18 - - -
25/09:00pm 11.4 6.1 11.1 98 0.2 WNW 30 37 16 20 - - -
25/08:30pm 11.3 5.9 11.0 98 0.2 WNW 30 35 16 19 - - -
25/08:00pm 11.3 6.3 10.8 97 0.3 WNW 28 33 15 18 - - -
25/07:30pm 11.1 5.6 10.6 97 0.3 WNW 30 35 16 19 - - -
25/07:00pm 12.4 6.3 9.8 84 1.3 WNW 32 39 17 21 - - -
25/06:37pm 12.9 7.4 9.0 77 2.0 NW 28 46 15 25 - - -
25/06:30pm 12.8 8.9 9.6 81 1.6 NW 20 24 11 13 - - -
25/06:00pm 12.9 7.8 9.2 78 1.9 NW 26 32 14 17 - - -
25/05:30pm 13.0 7.8 8.9 76 2.1 NW 26 35 14 19 - - -
25/05:00pm 13.0 7.4 8.7 75 2.2 NW 28 35 15 19 - - -
25/04:30pm 12.8 7.2 8.7 76 2.0 NW 28 35 15 19 - - -
25/04:00pm 12.8 7.7 9.1 78 1.9 NW 26 33 14 18 - - -

Latest Capital City Observations: Canberra | Sydney | Melbourne | Brisbane | Adelaide | Perth | Hobart | Darwin

Other Formats:

Comma delimited format used in spreadsheet applications
http://www.bom.gov.au/fwo/IDV60901/IDV60901.94871.axf

JavaScript Object Notation format (JSON) in row-major order
http://www.bom.gov.au/fwo/IDV60901/IDV60901.94871.json